ADDS METAR Data INFO
IDs: Format: Raw Decoded Include TAF

Data at: 0316 UTC 20 Jul 2018

KOPN 200255Z AUTO 11003KT 10SM -DZ SCT048 SCT065 SCT080 22/20 A3000 RMK AO2
KOPN 200235Z AUTO 09003KT 7SM -RA SCT048 SCT060 OVC100 22/20 A3001 RMK AO2
KOPN 200215Z AUTO 00000KT 7SM -RA SCT070 SCT080 OVC100 22/20 A3001 RMK AO2
KOPN 200155Z AUTO 00000KT 3SM RA SCT017 BKN080 OVC100 22/20 A3001 RMK AO2
KOPN 200135Z AUTO 00000KT 4SM RA SCT014 SCT070 OVC090 22/20 A3001 RMK AO2
KOPN 200115Z AUTO 00000KT 5SM RA SCT060 BKN090 OVC110 22/20 A3002 RMK AO2
KOPN 200055Z AUTO 11003KT 4SM RA SCT007 SCT046 OVC055 22/20 A3002 RMK AO2
KOPN 200035Z AUTO 00000KT 3SM VCTSRA BKN007 BKN033 OVC060 22/21 A3002 RMK AO2 LTG DSNT SW AND NW
KOPN 200015Z AUTO 00000KT 2 1/2SM +VCTSRA SCT004 BKN023 OVC034 22/21 A3001 RMK AO2 LTG DSNT ALQS
KOPN 192355Z AUTO 11008KT 3/4SM +TSRA OVC004 22/20 A3000 RMK AO2 LTG DSNT ALQS
KOPN 192335Z AUTO 07003KT 10SM TSRA BKN024 BKN033 OVC100 25/22 A2997 RMK AO2 LTG DSNT ALQS
KOPN 192315Z AUTO 00000KT 10SM -TSRA SCT036 SCT060 BKN110 25/22 A2994 RMK AO2 LTG DSNT ALQS
KOPN 192255Z AUTO 00000KT 10SM -DZ SCT090 OVC110 25/21 A2993 RMK AO2 LTG DSNT S THRU N
KOPN 192235Z AUTO 25005KT 10SM RA SCT042 BKN090 OVC110 26/21 A2994 RMK AO2 LTG DSNT ALQS
KOPN 192215Z AUTO 18006KT 7SM -RA SCT029 BKN050 OVC060 27/21 A2994 RMK AO2
KOPN 192155Z AUTO 09006KT 1 1/2SM +RA SCT018 SCT030 OVC042 27/21 A2994 RMK AO2 LTG DSNT SE AND S
KOPN 192135Z AUTO 08005KT 10SM BKN043 31/19 A2993 RMK AO2 LTG DSNT SE
KOPN 192115Z AUTO 00000KT 10SM SCT041 31/18 A2992 RMK AO2
KOPN 192055Z AUTO 13004KT 10SM BKN041 BKN050 32/19 A2991 RMK AO2
KOPN 192035Z AUTO 13003KT 10SM SCT041 SCT050 32/18 A2993 RMK AO2 LTG DSNT W
KOPN 192015Z AUTO 13003KT 10SM SCT041 SCT055 SCT065 32/20 A2994 RMK AO2
KOPN 191955Z AUTO 13005KT 10SM SCT041 BKN047 BKN065 32/19 A2994 RMK AO2 LTG DSNT E
KOPN 191935Z AUTO 16006KT 10SM SCT048 32/19 A2994 RMK AO2
KOPN 191915Z AUTO 12007KT 10SM SCT036 SCT043 SCT050 32/19 A2994 RMK AO2
KOPN 191855Z AUTO 08003KT 10SM SCT036 SCT045 SCT050 32/19 A2995 RMK AO2 LTG DSNT SW
KOPN 191835Z AUTO 11005KT 10SM SCT050 32/20 A2996 RMK AO2
KOPN 191815Z AUTO 12007KT 10SM SCT032 31/20 A2996 RMK AO2 LTG DSNT W
KOPN 191755Z AUTO 12006KT 10SM SCT032 BKN060 31/20 A2997 RMK AO2
KOPN 191735Z AUTO 10006KT 10SM SCT030 SCT041 SCT060 31/21 A2998 RMK AO2
KOPN 191715Z AUTO 09005KT 10SM SCT028 SCT039 SCT050 31/21 A2999 RMK AO2 LTG DSNT SW
KOPN 191655Z AUTO 09005KT 10SM BKN028 OVC043 30/20 A3000 RMK AO2
KOPN 191635Z AUTO 11005KT 10SM BKN028 BKN042 30/20 A3000 RMK AO2
KOPN 191615Z AUTO 14005KT 10SM BKN026 BKN031 30/20 A3000 RMK AO2
KOPN 191555Z AUTO 10005KT 10SM BKN024 30/21 A3001 RMK AO2
KOPN 191535Z AUTO 13005KT 10SM BKN024 30/20 A3000 RMK AO2
KOPN 191515Z AUTO 13005KT 10SM SCT022 30/21 A3000 RMK AO2
KOPN 191455Z AUTO 13005KT 10SM SCT020 SCT120 29/21 A3000 RMK AO2
KOPN 191435Z AUTO 09004KT 10SM BKN120 28/21 A3000 RMK AO2
KOPN 191415Z AUTO 08004KT 10SM SCT120 28/21 A3000 RMK AO2
KOPN 191355Z AUTO 08005KT 10SM SCT120 27/21 A3000 RMK AO2
KOPN 191335Z AUTO 09005KT 10SM CLR 27/21 A3000 RMK AO2
KOPN 191315Z AUTO 09003KT 10SM CLR 26/21 A3000 RMK AO2
KOPN 191255Z AUTO 12004KT 10SM CLR 26/22 A3000 RMK AO2
KOPN 191235Z AUTO 08003KT 10SM CLR 26/22 A3000 RMK AO2
KOPN 191215Z AUTO 00000KT 10SM SCT120 24/22 A2999 RMK AO2 LTG DSNT S
KOPN 191155Z AUTO 00000KT 10SM SCT120 23/21 A2999 RMK AO2
KOPN 191135Z AUTO 00000KT 5SM BR SCT003 SCT120 23/21 A2999 RMK AO2
KOPN 191115Z AUTO 00000KT 2 1/2SM BR BKN003 22/21 A2998 RMK AO2
KOPN 191055Z AUTO 00000KT 2SM BR OVC003 22/20 A2998 RMK AO2
KOPN 191035Z AUTO 00000KT 5SM BR CLR 22/20 A2997 RMK AO2
KOPN 191015Z AUTO 00000KT 4SM BR CLR 22/20 A2996 RMK AO2
KOPN 190955Z AUTO 00000KT 5SM BR CLR 22/20 A2996 RMK AO2
KOPN 190935Z AUTO 00000KT 5SM BR CLR 22/20 A2995 RMK AO2
KOPN 190915Z AUTO 00000KT 5SM BR CLR 22/20 A2995 RMK AO2
KOPN 190855Z AUTO 00000KT 5SM BR CLR 22/20 A2995 RMK AO2
KOPN 190835Z AUTO 00000KT 7SM CLR 22/21 A2994 RMK AO2
KOPN 190815Z AUTO 00000KT 5SM BR CLR 22/21 A2994 RMK AO2
KOPN 190755Z AUTO 00000KT 5SM BR CLR 22/20 A2994 RMK AO2
KOPN 190735Z AUTO 00000KT 5SM BR CLR 22/21 A2994 RMK AO2
KOPN 190715Z AUTO 00000KT 7SM CLR 23/21 A2994 RMK AO2
KOPN 190655Z AUTO 00000KT 7SM CLR 23/21 A2994 RMK AO2
KOPN 190635Z AUTO 00000KT 7SM CLR 23/21 A2995 RMK AO2
KOPN 190615Z AUTO 00000KT 7SM CLR 23/21 A2995 RMK AO2
KOPN 190555Z AUTO 00000KT 10SM CLR 23/21 A2995 RMK AO2
KOPN 190535Z AUTO 00000KT 10SM CLR 23/21 A2995 RMK AO2
KOPN 190515Z AUTO 00000KT 10SM CLR 24/22 A2995 RMK AO2
KOPN 190455Z AUTO 00000KT 10SM CLR 24/22 A2996 RMK AO2
KOPN 190435Z AUTO 00000KT 10SM CLR 25/21 A2997 RMK AO2 LTG DSNT SW
KOPN 190415Z AUTO 17004KT 10SM CLR 25/21 A2998 RMK AO2
KOPN 190355Z AUTO 16007KT 10SM CLR 25/21 A2998 RMK AO2 LTG DSNT SW
KOPN 190335Z AUTO 16003KT 10SM SCT041 25/21 A2998 RMK AO2 LTG DSNT SW
KOPN 190315Z AUTO 14003KT 10SM SCT039 SCT120 26/21 A2998 RMK AO2
KOPN 190255Z AUTO 00000KT 10SM SCT041 26/20 A2998 RMK AO2
KOPN 190235Z AUTO 12003KT 10SM BKN120 26/21 A2998 RMK AO2
KOPN 190215Z AUTO 00000KT 10SM VCTS OVC120 26/20 A2997 RMK AO2 LTG DSNT SE AND NW
KOPN 190155Z AUTO 30003KT 10SM OVC120 26/21 A2996 RMK AO2 LTG DSNT N SE AND NW
KOPN 190135Z AUTO 00000KT 10SM VCTS BKN120 26/22 A2995 RMK AO2 LTG DSNT SE AND W
KOPN 190115Z AUTO 00000KT 10SM SCT120 27/21 A2995 RMK AO2 LTG DSNT N SE AND W
KOPN 190055Z AUTO 00000KT 10SM CLR 27/21 A2994 RMK AO2 LTG DSNT NW
KOPN 190035Z AUTO 00000KT 10SM SCT120 28/21 A2994 RMK AO2 LTG DSNT SE
KOPN 190015Z AUTO 19003KT 10SM SCT110 28/21 A2994 RMK AO2 LTG DSNT W
KOPN 182355Z AUTO 20004KT 10SM SCT075 SCT100 28/21 A2994 RMK AO2 LTG DSNT SW AND W
KOPN 182335Z AUTO 18006KT 10SM SCT075 29/21 A2993 RMK AO2 LTG DSNT SE AND W
KOPN 182315Z AUTO 00000KT 10SM CLR 30/20 A2993 RMK AO2
KOPN 182255Z AUTO 15003KT 10SM CLR 31/20 A2992 RMK AO2 LTG DSNT SE THRU SW
KOPN 182235Z AUTO 00000KT 10SM CLR 29/20 A2991 RMK AO2 LTG DSNT E
KOPN 182215Z AUTO 19004KT 10SM CLR 28/20 A2992 RMK AO2
KOPN 182155Z AUTO 20008KT 10SM CLR 30/20 A2992 RMK AO2 LTG DSNT S
KOPN 182135Z AUTO 00000KT 10SM CLR 32/18 A2992 RMK AO2
KOPN 182115Z AUTO 03003KT 10SM SCT050 SCT065 BKN100 32/20 A2993 RMK AO2
KOPN 182055Z AUTO 07004KT 10SM SCT042 SCT055 BKN100 31/20 A2993 RMK AO2
KOPN 182035Z AUTO 35004KT 10SM SCT110 32/20 A2993 RMK AO2
KOPN 182015Z AUTO 36004KT 10SM CLR 33/20 A2994 RMK AO2
KOPN 181955Z AUTO 30007KT 280V360 10SM SCT120 32/20 A2994 RMK AO2
KOPN 181935Z AUTO 34003KT 10SM SCT120 32/21 A2995 RMK AO2 LTG DSNT SW
KOPN 181915Z AUTO 34004KT 10SM SCT039 SCT120 31/20 A2996 RMK AO2
KOPN 181855Z AUTO 31005KT 10SM SCT036 SCT043 SCT060 32/21 A2996 RMK AO2
KOPN 181835Z AUTO 30004KT 10SM SCT038 SCT060 SCT085 32/20 A2997 RMK AO2 LTG DSNT NE AND SW
KOPN 181815Z AUTO 00000KT 10SM SCT034 32/21 A2998 RMK AO2
KOPN 181755Z AUTO 30004KT 10SM BKN034 32/20 A2998 RMK AO2
KOPN 181735Z AUTO 30006KT 10SM SCT032 31/20 A2999 RMK AO2
KOPN 181715Z AUTO 28003KT 10SM SCT027 31/20 A3000 RMK AO2
KOPN 181655Z AUTO 31006KT 10SM BKN025 31/20 A3000 RMK AO2
KOPN 181635Z AUTO 00000KT 10SM SCT023 30/21 A3001 RMK AO2
KOPN 181615Z AUTO 35005KT 10SM SCT023 30/21 A3001 RMK AO2
KOPN 181555Z AUTO 28005KT 10SM CLR 30/21 A3001 RMK AO2
KOPN 181535Z AUTO 29005KT 10SM SCT095 30/21 A3001 RMK AO2